Time;durP1;ratioP1;P1;durP2;ratioP2;P2;SDS_P1;SDS_P2;PMS_P1;PMS_P2;Temp;Humidity;BMP_temperature;BMP_pressure;BME280_temperature;BME280_humidity;BME280_pressure;Samples;Min_cycle;Max_cycle;Signal;HPM_P1;HPM_P2
2023/09/27 00:00:40;;;;;;;4.28;2.00;;;9.40;99.90;;;;;;5015660;28;20029;-76
2023/09/27 00:03:06;;;;;;;7.15;1.92;;;9.40;99.90;;;;;;4997769;28;20128;-76
2023/09/27 00:05:32;;;;;;;3.58;2.35;;;9.30;99.90;;;;;;5015380;28;20024;-76
2023/09/27 00:07:58;;;;;;;1.63;1.50;;;9.40;99.90;;;;;;5015071;28;20037;-76
2023/09/27 00:10:24;;;;;;;5.10;1.42;;;9.40;99.90;;;;;;4997477;28;20022;-76
2023/09/27 00:12:50;;;;;;;2.53;1.95;;;9.20;99.90;;;;;;5015023;28;20041;-76
2023/09/27 00:15:16;;;;;;;3.38;1.95;;;9.20;99.90;;;;;;4997727;28;20407;-77
2023/09/27 00:17:43;;;;;;;2.38;1.95;;;9.20;99.90;;;;;;4997693;28;20117;-77
2023/09/27 00:20:15;;;;;;;2.38;1.90;;;9.30;99.90;;;;;;5015171;28;20017;-77
2023/09/27 00:22:42;;;;;;;5.32;1.92;;;9.30;99.90;;;;;;5015181;28;20022;-77
2023/09/27 00:25:08;;;;;;;2.47;1.65;;;9.30;99.90;;;;;;5014906;28;20487;-76
2023/09/27 00:27:36;;;;;;;3.35;1.40;;;9.20;99.90;;;;;;5015010;28;20022;-76
2023/09/27 00:30:03;;;;;;;3.28;2.15;;;9.20;99.90;;;;;;5015052;28;20018;-76
2023/09/27 00:32:28;;;;;;;3.65;1.80;;;9.10;99.90;;;;;;5015042;28;20034;-76
2023/09/27 00:34:54;;;;;;;3.58;1.75;;;9.10;99.90;;;;;;5015827;28;20037;-77
2023/09/27 00:37:20;;;;;;;2.08;1.98;;;9.20;99.90;;;;;;5017706;28;20037;-76
2023/09/27 00:39:46;;;;;;;1.90;1.60;;;9.20;99.90;;;;;;5017284;28;20093;-77
2023/09/27 00:42:12;;;;;;;1.85;1.75;;;9.10;99.90;;;;;;5014584;28;20050;-76
2023/09/27 00:44:38;;;;;;;1.67;1.42;;;9.00;99.90;;;;;;5014737;28;20026;-76
2023/09/27 00:47:05;;;;;;;2.90;2.63;;;9.00;99.90;;;;;;5014641;28;20080;-76
2023/09/27 00:49:32;;;;;;;3.50;1.92;;;8.90;99.90;;;;;;5014873;28;20021;-76
2023/09/27 00:51:58;;;;;;;2.03;1.45;;;8.80;99.90;;;;;;5014323;28;20038;-76
2023/09/27 00:54:25;;;;;;;2.00;1.55;;;8.80;99.90;;;;;;5014647;28;20033;-76
2023/09/27 00:56:51;;;;;;;2.35;1.63;;;8.80;99.90;;;;;;4996808;28;20034;-76
2023/09/27 00:59:18;;;;;;;1.52;1.20;;;8.90;99.90;;;;;;5014397;28;20552;-76
2023/09/27 01:01:46;;;;;;;8.98;2.42;;;8.90;99.90;;;;;;5014431;28;20033;-76
2023/09/27 01:04:13;;;;;;;4.93;2.13;;;9.10;99.90;;;;;;5014191;28;20382;-76
2023/09/27 01:06:40;;;;;;;2.60;1.50;;;9.20;99.90;;;;;;5014310;28;20018;-76
2023/09/27 01:09:06;;;;;;;2.38;1.63;;;9.20;99.90;;;;;;5014269;28;20021;-76
2023/09/27 01:11:33;;;;;;;2.10;2.00;;;9.10;99.90;;;;;;5014444;28;20026;-76
2023/09/27 01:13:59;;;;;;;2.35;1.50;;;8.90;99.90;;;;;;5014140;28;20038;-76
2023/09/27 01:16:25;;;;;;;5.82;1.48;;;8.70;99.90;;;;;;5014075;28;20026;-76
2023/09/27 01:18:50;;;;;;;3.47;1.52;;;8.70;99.90;;;;;;4996431;28;20049;-76
2023/09/27 01:21:19;;;;;;;1.75;1.65;;;8.60;99.90;;;;;;5013842;28;20022;-76
2023/09/27 01:23:48;;;;;;;4.57;1.92;;;8.50;99.90;;;;;;5013893;28;20018;-76
2023/09/27 01:26:16;;;;;;;2.58;1.42;;;8.50;99.90;;;;;;5013957;28;20076;-76
2023/09/27 01:28:46;;;;;;;2.53;1.50;;;8.50;99.90;;;;;;4996310;28;20033;-76
2023/09/27 01:31:12;;;;;;;1.65;1.20;;;8.40;99.90;;;;;;5009632;28;20040;-76
2023/09/27 01:33:39;;;;;;;2.00;1.88;;;8.40;99.90;;;;;;4995811;28;20124;-76
2023/09/27 01:36:05;;;;;;;4.75;1.90;;;8.40;99.90;;;;;;5013774;28;20056;-77
2023/09/27 01:38:31;;;;;;;1.75;1.30;;;8.30;99.90;;;;;;5013706;28;20032;-76
2023/09/27 01:40:57;;;;;;;3.72;2.47;;;8.20;99.90;;;;;;5013764;28;20022;-76
2023/09/27 01:43:23;;;;;;;2.97;2.05;;;8.30;99.90;;;;;;5013768;28;20030;-76
2023/09/27 01:45:49;;;;;;;2.58;2.20;;;8.40;99.90;;;;;;5013695;28;20044;-76
2023/09/27 01:48:14;;;;;;;2.72;2.33;;;8.50;99.90;;;;;;4996077;28;20497;-76
2023/09/27 01:50:40;;;;;;;2.65;2.03;;;8.60;99.90;;;;;;5013602;28;20050;-76
2023/09/27 01:53:06;;;;;;;2.92;2.40;;;8.60;99.90;;;;;;4995929;28;20034;-76
2023/09/27 01:55:31;;;;;;;5.22;2.10;;;8.50;99.90;;;;;;4995779;28;20026;-76
2023/09/27 01:57:57;;;;;;;2.20;2.00;;;8.40;99.90;;;;;;4995807;28;20028;-76
2023/09/27 02:00:23;;;;;;;2.30;1.90;;;8.30;99.90;;;;;;5013519;28;20018;-76
2023/09/27 02:02:58;;;;;;;6.65;1.73;;;8.20;99.90;;;;;;5013475;28;20017;-76
2023/09/27 02:05:25;;;;;;;2.15;1.98;;;8.10;99.90;;;;;;4996476;28;20022;-76
2023/09/27 02:07:51;;;;;;;1.92;1.73;;;8.10;99.90;;;;;;5017494;28;20429;-77
2023/09/27 02:10:17;;;;;;;2.08;1.70;;;8.10;99.90;;;;;;5017295;28;20022;-76
2023/09/27 02:12:43;;;;;;;4.82;3.33;;;8.20;99.90;;;;;;4999424;28;20037;-76
2023/09/27 02:15:11;;;;;;;1.85;1.52;;;8.00;99.90;;;;;;4999650;28;20022;-76
2023/09/27 02:17:37;;;;;;;3.90;2.10;;;8.00;99.90;;;;;;4999375;28;20021;-76
2023/09/27 02:20:07;;;;;;;1.92;1.83;;;7.90;99.90;;;;;;4999541;28;20022;-76
2023/09/27 02:22:33;;;;;;;1.70;1.50;;;7.90;99.90;;;;;;5000000;28;20018;-76
2023/09/27 02:24:59;;;;;;;2.92;1.65;;;7.80;99.90;;;;;;5017514;28;20057;-76
2023/09/27 02:27:24;;;;;;;5.22;2.15;;;7.80;99.90;;;;;;4999718;28;20057;-75
2023/09/27 02:29:50;;;;;;;2.03;1.83;;;7.70;99.90;;;;;;5016889;28;20040;-76
2023/09/27 02:32:17;;;;;;;2.25;2.05;;;7.60;99.90;;;;;;5016616;28;20095;-76
2023/09/27 02:34:43;;;;;;;7.13;2.28;;;7.60;99.90;;;;;;4999360;28;20505;-76
2023/09/27 02:37:09;;;;;;;9.32;2.05;;;7.60;99.90;;;;;;5017048;28;20513;-76
2023/09/27 02:39:34;;;;;;;3.30;1.80;;;7.60;99.90;;;;;;5016897;28;20181;-76
2023/09/27 02:42:00;;;;;;;3.03;2.22;;;7.70;99.90;;;;;;5017082;28;20037;-76
2023/09/27 02:44:26;;;;;;;3.17;2.30;;;7.70;99.90;;;;;;4999533;28;20025;-76
2023/09/27 02:46:55;;;;;;;2.85;2.10;;;7.70;99.90;;;;;;4999142;28;20113;-76
2023/09/27 02:49:21;;;;;;;1.65;1.55;;;7.80;99.90;;;;;;4998878;28;20034;-76
2023/09/27 02:51:51;;;;;;;2.20;1.67;;;7.70;99.90;;;;;;4998821;28;20577;-76
2023/09/27 02:54:17;;;;;;;2.65;1.50;;;7.60;99.90;;;;;;4999191;28;20506;-76
2023/09/27 02:56:45;;;;;;;3.33;1.88;;;7.40;99.90;;;;;;4999210;28;20053;-76
2023/09/27 02:59:14;;;;;;;2.45;1.75;;;7.30;99.90;;;;;;4999131;28;20030;-76
2023/09/27 03:01:40;;;;;;;2.47;1.77;;;7.30;99.90;;;;;;4999099;28;20048;-77
2023/09/27 03:04:11;;;;;;;1.50;1.40;;;7.40;99.90;;;;;;4998932;28;20116;-77
2023/09/27 03:06:41;;;;;;;5.13;2.67;;;7.30;99.90;;;;;;5016414;28;20030;-76
2023/09/27 03:09:08;;;;;;;2.50;2.30;;;7.30;99.90;;;;;;4999117;28;20056;-76
2023/09/27 03:11:35;;;;;;;2.55;1.90;;;7.50;99.90;;;;;;5016372;28;20026;-76
2023/09/27 03:14:01;;;;;;;4.85;1.63;;;7.50;99.90;;;;;;5016299;28;20030;-76
2023/09/27 03:16:26;;;;;;;3.97;2.28;;;7.40;99.90;;;;;;4998816;28;20072;-76
2023/09/27 03:18:54;;;;;;;2.20;1.33;;;7.40;99.90;;;;;;4998664;28;20026;-76
2023/09/27 03:21:20;;;;;;;4.50;1.40;;;7.30;99.90;;;;;;4998682;28;20018;-77
2023/09/27 03:23:46;;;;;;;4.55;2.03;;;7.20;99.90;;;;;;5016249;28;20018;-77
2023/09/27 03:26:12;;;;;;;5.90;1.60;;;7.30;99.90;;;;;;4998460;28;20034;-76
2023/09/27 03:28:38;;;;;;;2.13;1.50;;;7.30;99.90;;;;;;4998407;28;20026;-76
2023/09/27 03:31:05;;;;;;;1.63;1.52;;;7.20;99.90;;;;;;5016228;28;20396;-76
2023/09/27 03:33:31;;;;;;;2.17;1.90;;;7.10;99.90;;;;;;5016112;28;20136;-76
2023/09/27 03:35:57;;;;;;;3.03;1.63;;;7.00;99.90;;;;;;5016284;28;20018;-77
2023/09/27 03:38:23;;;;;;;1.90;1.38;;;7.00;99.90;;;;;;5016042;28;20025;-76
2023/09/27 03:40:49;;;;;;;3.75;2.30;;;7.00;99.90;;;;;;5016025;28;20022;-77
2023/09/27 03:43:15;;;;;;;2.47;2.03;;;7.00;99.90;;;;;;4998229;28;20033;-76
2023/09/27 03:45:40;;;;;;;2.42;1.20;;;7.20;99.90;;;;;;5015809;28;20418;-76
2023/09/27 03:48:06;;;;;;;2.63;1.98;;;7.20;99.90;;;;;;5015855;28;20026;-76
2023/09/27 03:50:32;;;;;;;1.48;1.17;;;7.10;99.90;;;;;;5015888;28;20046;-76
2023/09/27 03:52:58;;;;;;;1.33;1.23;;;7.10;99.90;;;;;;5016175;28;20042;-77
2023/09/27 03:55:24;;;;;;;3.22;1.15;;;7.00;99.90;;;;;;5017860;28;20483;-77
2023/09/27 03:57:51;;;;;;;2.28;2.00;;;6.90;99.90;;;;;;5017087;28;20029;-76
2023/09/27 04:00:18;;;;;;;2.47;1.65;;;6.80;99.90;;;;;;5015640;28;20018;-76
2023/09/27 04:02:44;;;;;;;1.63;1.48;;;6.70;99.90;;;;;;4997874;28;20032;-77
2023/09/27 04:05:11;;;;;;;1.98;1.85;;;6.80;99.90;;;;;;4997814;28;20029;-76
2023/09/27 04:07:37;;;;;;;2.22;2.03;;;6.70;99.90;;;;;;5015526;28;20076;-77
2023/09/27 04:10:04;;;;;;;1.80;1.70;;;6.80;99.90;;;;;;4997759;28;20025;-76
2023/09/27 04:12:29;;;;;;;2.15;1.63;;;6.80;99.90;;;;;;4997746;28;20415;-77
2023/09/27 04:14:56;;;;;;;3.47;1.48;;;6.70;99.90;;;;;;5015387;28;20034;-77
2023/09/27 04:17:22;;;;;;;6.07;1.88;;;6.60;99.90;;;;;;5015310;28;20026;-77
2023/09/27 04:19:50;;;;;;;1.58;1.48;;;6.60;99.90;;;;;;4997686;28;20025;-76
2023/09/27 04:22:16;;;;;;;3.33;1.85;;;6.50;99.90;;;;;;5015018;28;20021;-77
2023/09/27 04:24:41;;;;;;;3.15;2.65;;;6.50;99.90;;;;;;5014978;28;20022;-77
2023/09/27 04:27:08;;;;;;;12.45;3.70;;;6.50;99.90;;;;;;4997664;28;20026;-77
2023/09/27 04:29:33;;;;;;;2.97;1.85;;;6.50;99.90;;;;;;4997085;28;20026;-77
2023/09/27 04:31:59;;;;;;;16.38;2.95;;;6.60;99.90;;;;;;5015125;28;20037;-76
2023/09/27 04:34:25;;;;;;;3.50;2.70;;;6.70;99.90;;;;;;4997487;28;20080;-77
2023/09/27 04:36:50;;;;;;;13.57;2.60;;;6.80;99.90;;;;;;4997400;28;20029;-76
2023/09/27 04:39:18;;;;;;;8.70;2.35;;;6.70;99.90;;;;;;4997151;28;20033;-77
2023/09/27 04:41:46;;;;;;;45.83;2.65;;;6.70;99.90;;;;;;4997401;28;20160;-76
2023/09/27 04:44:13;;;;;;;28.52;2.78;;;6.70;99.90;;;;;;5014774;28;20075;-77
2023/09/27 04:46:39;;;;;;;2.78;2.05;;;6.80;99.90;;;;;;4997402;28;20049;-77
2023/09/27 04:49:05;;;;;;;15.38;3.65;;;6.90;99.90;;;;;;4997174;28;20034;-77
2023/09/27 04:51:30;;;;;;;5.00;2.10;;;6.90;99.90;;;;;;5015392;28;20042;-78
2023/09/27 04:54:00;;;;;;;2.78;2.25;;;6.90;99.90;;;;;;5016151;28;20049;-76
2023/09/27 04:56:27;;;;;;;3.78;3.05;;;7.00;99.90;;;;;;4997610;28;20022;-77
2023/09/27 04:58:52;;;;;;;4.95;2.20;;;7.00;99.90;;;;;;5014899;28;20509;-77
2023/09/27 05:01:18;;;;;;;2.63;2.42;;;7.00;99.90;;;;;;4997424;28;20153;-77
2023/09/27 05:03:44;;;;;;;3.55;2.60;;;7.10;99.90;;;;;;5015987;28;20064;-77
2023/09/27 05:06:09;;;;;;;4.25;2.17;;;7.10;99.90;;;;;;4998574;28;20022;-76
2023/09/27 05:08:35;;;;;;;2.75;1.80;;;6.90;99.90;;;;;;4998191;28;20022;-77
2023/09/27 05:11:01;;;;;;;4.28;1.90;;;6.90;99.90;;;;;;5016182;28;20049;-78
2023/09/27 05:13:26;;;;;;;1.90;1.80;;;6.80;99.90;;;;;;5015893;28;20088;-77
2023/09/27 05:15:52;;;;;;;3.40;2.25;;;6.90;99.90;;;;;;4999870;28;20022;-77
2023/09/27 05:18:19;;;;;;;2.08;1.58;;;6.90;99.90;;;;;;5017757;28;20030;-77
2023/09/27 05:20:45;;;;;;;2.10;1.40;;;6.80;99.90;;;;;;5016397;28;20029;-78
2023/09/27 05:23:16;;;;;;;4.00;2.83;;;6.70;99.90;;;;;;5022655;28;20049;-83
2023/09/27 05:25:46;;;;;;;1.80;1.65;;;6.60;99.90;;;;;;5005184;28;20051;-84
2023/09/27 05:28:12;;;;;;;2.25;1.75;;;6.60;99.90;;;;;;5005286;28;20026;-82
2023/09/27 05:30:41;;;;;;;3.90;2.30;;;6.60;99.90;;;;;;5004590;28;20010;-83
2023/09/27 05:33:17;;;;;;;1.87;1.77;;;6.60;99.90;;;;;;5021073;28;20026;-83
2023/09/27 05:35:43;;;;;;;2.25;1.92;;;6.60;99.90;;;;;;5004794;28;20277;-82
2023/09/27 05:38:09;;;;;;;3.58;2.40;;;6.70;99.90;;;;;;5021076;28;20022;-83
2023/09/27 05:40:35;;;;;;;3.38;2.78;;;5.60;99.90;;;;;;5020620;28;20395;-82
2023/09/27 05:43:02;;;;;;;2.45;1.55;;;6.90;99.90;;;;;;5021630;28;20010;-84
2023/09/27 05:45:29;;;;;;;2.20;1.70;;;6.90;99.90;;;;;;5037229;28;20029;-81
2023/09/27 05:48:02;;;;;;;2.08;1.90;;;7.10;99.90;;;;;;5021481;28;20034;-82
2023/09/27 05:53:52;;;;;;;4.13;2.78;;;7.00;99.90;;;;;;5526240;22;20068;-83
2023/09/27 05:56:18;;;;;;;3.97;2.10;;;6.90;99.90;;;;;;5060293;28;20041;-81
2023/09/27 06:01:13;;;;;;;3.70;2.38;;;7.20;99.90;;;;;;5091396;22;20116;-82
2023/09/27 06:03:38;;;;;;;3.08;2.50;;;7.30;99.90;;;;;;5058343;28;20105;-83
2023/09/27 06:06:08;;;;;;;3.22;2.15;;;7.30;99.90;;;;;;5128262;22;20054;-83
2023/09/27 06:08:54;;;;;;;2.90;2.30;;;7.40;99.90;;;;;;5057402;28;20021;-82
2023/09/27 06:11:20;;;;;;;2.42;2.22;;;7.30;99.90;;;;;;5057527;28;20018;-84
2023/09/27 06:14:10;;;;;;;2.00;1.83;;;7.20;99.90;;;;;;5559007;22;20067;-80
2023/09/27 06:16:36;;;;;;;;;;;7.40;99.90;;;;;;5055925;28;20057;-80
2023/09/27 06:19:04;;;;;;;3.60;2.22;;;7.40;99.90;;;;;;5055514;28;19905;-79
2023/09/27 06:26:41;;;;;;;2.25;1.55;;;7.60;99.90;;;;;;5097330;22;20104;-78
2023/09/27 06:29:09;;;;;;;1.58;1.45;;;7.60;99.90;;;;;;5056914;28;20081;-81
2023/09/27 06:31:35;;;;;;;1.58;1.48;;;7.70;99.90;;;;;;5040946;28;20029;-82
2023/09/27 06:34:01;;;;;;;3.17;2.50;;;7.80;99.90;;;;;;5038959;28;20053;-83
2023/09/27 06:39:15;;;;;;;2.78;1.98;;;7.90;99.90;;;;;;5039803;28;20029;-79
2023/09/27 06:41:42;;;;;;;1.85;1.55;;;8.20;99.90;;;;;;5021966;28;20030;-80
2023/09/27 06:44:08;;;;;;;4.25;2.38;;;8.30;99.90;;;;;;5045076;28;20040;-81
2023/09/27 06:46:35;;;;;;;2.42;2.22;;;8.40;99.90;;;;;;5036631;28;20565;-79
2023/09/27 06:49:03;;;;;;;2.13;1.98;;;8.40;99.90;;;;;;5045680;28;20026;-79
2023/09/27 06:51:29;;;;;;;2.67;2.05;;;8.60;99.90;;;;;;5032329;28;20089;-80
2023/09/27 06:53:55;;;;;;;4.93;1.90;;;8.80;99.90;;;;;;5037484;28;20018;-80
2023/09/27 06:56:22;;;;;;;2.50;1.90;;;8.90;99.90;;;;;;5036253;28;20029;-80
2023/09/27 06:58:49;;;;;;;4.63;3.08;;;9.10;99.90;;;;;;5054458;28;20041;-79
2023/09/27 07:01:21;;;;;;;2.85;2.65;;;9.20;99.90;;;;;;5053288;28;20089;-80
2023/09/27 07:03:48;;;;;;;5.03;3.15;;;9.40;99.90;;;;;;5036529;28;20040;-80
2023/09/27 07:06:14;;;;;;;4.35;2.28;;;9.50;99.90;;;;;;5038095;28;20028;-81
2023/09/27 07:08:40;;;;;;;4.32;3.63;;;9.70;99.90;;;;;;5039945;28;20021;-80
2023/09/27 07:11:08;;;;;;;5.53;3.58;;;9.80;99.90;;;;;;5040098;28;20025;-81
2023/09/27 07:13:37;;;;;;;3.92;3.55;;;9.90;99.90;;;;;;5032722;28;20032;-80
2023/09/27 07:16:29;;;;;;;3.53;3.22;;;10.10;99.90;;;;;;5013171;28;20048;-80
2023/09/27 07:19:00;;;;;;;4.00;3.60;;;10.30;99.90;;;;;;5038178;28;20029;-80
2023/09/27 07:21:27;;;;;;;6.22;4.22;;;10.40;99.90;;;;;;5022591;28;20025;-81
2023/09/27 07:23:53;;;;;;;5.10;3.60;;;10.50;99.90;;;;;;5039921;28;20029;-80
2023/09/27 07:26:19;;;;;;;4.00;3.47;;;10.70;99.90;;;;;;5040685;28;20045;-80
2023/09/27 07:28:52;;;;;;;4.82;3.70;;;10.90;99.90;;;;;;5042273;28;20032;-80
2023/09/27 07:31:17;;;;;;;9.85;4.70;;;11.00;99.90;;;;;;5042826;28;20120;-80
2023/09/27 07:33:52;;;;;;;4.38;3.97;;;11.10;99.90;;;;;;5041639;28;20025;-79
2023/09/27 07:36:20;;;;;;;7.65;4.05;;;11.20;99.90;;;;;;5058682;28;20026;-80
2023/09/27 07:38:47;;;;;;;4.03;3.72;;;11.30;99.90;;;;;;5041984;28;20049;-80
2023/09/27 07:41:15;;;;;;;6.93;3.72;;;11.50;99.90;;;;;;5043195;28;20033;-80
2023/09/27 07:43:41;;;;;;;4.38;2.70;;;11.60;99.90;;;;;;5042553;28;20108;-80
2023/09/27 07:48:39;;;;;;;11.93;4.72;;;11.90;99.90;;;;;;5064687;22;20042;-80
2023/09/27 07:51:18;;;;;;;6.03;4.50;;;12.00;99.90;;;;;;5041525;28;20021;-78
2023/09/27 07:53:45;;;;;;;3.67;3.38;;;12.20;99.90;;;;;;5038941;28;20005;-79
2023/09/27 07:56:19;;;;;;;3.70;3.38;;;12.30;99.90;;;;;;5039731;28;20032;-79
2023/09/27 07:58:46;;;;;;;5.22;4.15;;;12.40;99.90;;;;;;5038731;28;20021;-80
2023/09/27 08:01:12;;;;;;;5.93;4.00;;;12.50;99.90;;;;;;5038636;28;20049;-78
2023/09/27 08:03:38;;;;;;;4.72;3.92;;;12.60;99.90;;;;;;5039954;28;20069;-78
2023/09/27 08:06:07;;;;;;;18.90;3.72;;;12.60;99.90;;;;;;5038499;28;20033;-78
2023/09/27 08:08:40;;;;;;;5.78;3.35;;;12.60;99.90;;;;;;5032475;28;20067;-79
2023/09/27 08:11:05;;;;;;;7.65;4.78;;;12.60;99.90;;;;;;5041104;28;20117;-79
2023/09/27 08:13:31;;;;;;;6.55;4.03;;;12.70;99.90;;;;;;5036092;28;20022;-80
2023/09/27 08:15:57;;;;;;;7.82;4.28;;;12.80;99.90;;;;;;5032087;28;20028;-80
2023/09/27 08:18:24;;;;;;;7.20;4.57;;;12.90;99.90;;;;;;5032716;28;20045;-80
2023/09/27 08:20:52;;;;;;;7.57;3.92;;;13.10;99.90;;;;;;5033646;28;20029;-79
2023/09/27 08:23:18;;;;;;;4.40;3.60;;;13.30;99.90;;;;;;5015177;28;20523;-78
2023/09/27 08:25:43;;;;;;;4.53;3.33;;;13.30;99.90;;;;;;5032055;28;20029;-80
2023/09/27 08:28:09;;;;;;;7.18;3.88;;;13.30;99.90;;;;;;5050095;28;20030;-80
2023/09/27 08:30:35;;;;;;;4.90;3.28;;;13.50;99.90;;;;;;5027772;28;20028;-79
2023/09/27 08:33:01;;;;;;;5.88;4.05;;;13.90;99.90;;;;;;5044205;28;20045;-79
2023/09/27 08:35:27;;;;;;;5.47;3.38;;;14.20;99.90;;;;;;5032980;28;20049;-79
2023/09/27 08:37:53;;;;;;;5.20;3.42;;;14.50;99.90;;;;;;5043537;28;20061;-80
2023/09/27 08:40:19;;;;;;;5.30;3.22;;;14.70;99.90;;;;;;5024829;28;20083;-80
2023/09/27 08:42:50;;;;;;;5.90;3.65;;;15.10;99.90;;;;;;5018449;28;20033;-79
2023/09/27 08:45:19;;;;;;;7.05;3.17;;;15.30;99.90;;;;;;5040872;28;20029;-81
2023/09/27 08:47:45;;;;;;;4.93;3.83;;;15.30;99.90;;;;;;5026548;28;20053;-78
2023/09/27 08:50:13;;;;;;;6.97;3.72;;;15.20;99.90;;;;;;5045876;28;20376;-79
2023/09/27 08:52:49;;;;;;;8.13;4.70;;;14.90;99.90;;;;;;5018904;28;20033;-79
2023/09/27 08:55:17;;;;;;;6.50;4.22;;;14.90;99.90;;;;;;5027768;28;20093;-79
2023/09/27 08:57:51;;;;;;;5.20;3.63;;;14.90;99.90;;;;;;5028585;28;20056;-78
2023/09/27 09:00:20;;;;;;;7.75;3.83;;;15.00;99.90;;;;;;5045131;28;20064;-78
2023/09/27 09:02:49;;;;;;;10.55;4.22;;;15.00;99.90;;;;;;5038133;28;20048;-80
2023/09/27 09:05:16;;;;;;;4.75;3.80;;;15.00;99.90;;;;;;5018167;28;20040;-82
2023/09/27 09:07:42;;;;;;;7.78;4.05;;;15.10;99.90;;;;;;5017534;28;20025;-78
2023/09/27 09:10:13;;;;;;;7.13;4.20;;;15.20;99.90;;;;;;5021008;28;20060;-78
2023/09/27 09:12:40;;;;;;;5.88;4.03;;;15.40;99.90;;;;;;5039373;28;20052;-79
2023/09/27 09:15:07;;;;;;;5.80;3.75;;;15.50;99.90;;;;;;5024431;28;20026;-80
2023/09/27 09:17:34;;;;;;;5.80;4.10;;;15.50;99.90;;;;;;5016036;28;20036;-79
2023/09/27 09:21:08;;;;;;;6.20;3.97;;;15.70;99.90;;;;;;5020398;28;20108;-79
2023/09/27 09:23:07;;;;;;;9.75;4.75;;;15.90;99.90;;;;;;5020434;28;20037;-80
2023/09/27 09:25:43;;;;;;;7.18;5.13;;;15.90;99.90;;;;;;5015778;28;20389;-81
2023/09/27 09:28:08;;;;;;;7.45;4.38;;;16.10;99.90;;;;;;5015777;28;20036;-79
2023/09/27 09:30:38;;;;;;;7.35;3.58;;;16.20;99.90;;;;;;5022317;28;20018;-81
2023/09/27 09:33:17;;;;;;;4.70;3.75;;;16.30;99.90;;;;;;5016158;28;20025;-81
2023/09/27 09:35:42;;;;;;;3.08;2.72;;;16.40;99.90;;;;;;5035126;28;20048;-82
2023/09/27 09:38:08;;;;;;;6.53;3.58;;;16.60;99.90;;;;;;5033292;28;20025;-80
2023/09/27 09:40:50;;;;;;;6.43;3.63;;;16.60;99.90;;;;;;5021443;28;20030;-79
2023/09/27 09:43:28;;;;;;;5.78;3.95;;;16.80;99.90;;;;;;5022730;28;20524;-81
2023/09/27 09:45:54;;;;;;;6.88;3.72;;;16.90;99.90;;;;;;5015594;28;20116;-82
2023/09/27 09:48:19;;;;;;;6.53;3.20;;;17.10;99.90;;;;;;5015419;28;20132;-80
2023/09/27 09:50:46;;;;;;;7.45;4.15;;;17.20;99.90;;;;;;5033232;28;20025;-81
2023/09/27 09:53:12;;;;;;;6.43;4.65;;;17.30;99.90;;;;;;5015896;28;20079;-79
2023/09/27 09:55:40;;;;;;;9.00;3.28;;;17.40;99.90;;;;;;5015309;28;20485;-80
2023/09/27 09:58:21;;;;;;;9.50;3.70;;;17.50;99.90;;;;;;5015152;28;20033;-79
2023/09/27 10:00:52;;;;;;;3.25;2.42;;;17.60;99.90;;;;;;5015086;28;20041;-79
2023/09/27 10:03:23;;;;;;;6.40;3.85;;;17.70;99.90;;;;;;5014988;28;20112;-79
2023/09/27 10:05:51;;;;;;;3.92;2.83;;;17.90;99.90;;;;;;5033071;28;20022;-80
2023/09/27 10:08:19;;;;;;;4.53;3.67;;;17.90;99.90;;;;;;5033014;28;20025;-80
2023/09/27 10:10:45;;;;;;;6.03;3.85;;;18.10;99.90;;;;;;5015217;28;20105;-79
2023/09/27 10:13:13;;;;;;;7.15;3.30;;;18.20;99.90;;;;;;5014958;28;20021;-79
2023/09/27 10:15:40;;;;;;;5.60;2.85;;;18.30;99.90;;;;;;5015103;28;20116;-79
2023/09/27 10:18:21;;;;;;;4.03;3.35;;;18.30;99.90;;;;;;5014966;28;20030;-79
2023/09/27 10:21:03;;;;;;;4.28;3.05;;;18.50;99.90;;;;;;5032604;28;20028;-78
2023/09/27 10:23:39;;;;;;;5.07;3.45;;;18.70;99.90;;;;;;5015124;28;20125;-80
2023/09/27 10:26:40;;;;;;;11.95;3.50;;;18.90;99.90;;;;;;5016689;28;20040;-81
2023/09/27 10:29:16;;;;;;;6.47;3.00;;;19.10;99.90;;;;;;4940555;29;20030;-79
2023/09/27 10:31:57;;;;;;;7.57;2.72;;;19.10;99.90;;;;;;5008436;28;20034;-79
2023/09/27 10:34:25;;;;;;;5.10;3.35;;;19.30;99.90;;;;;;5018689;28;20567;-79
2023/09/27 10:36:55;;;;;;;5.63;3.42;;;19.40;99.90;;;;;;5018526;28;20128;-80
2023/09/27 10:39:21;;;;;;;3.13;2.72;;;19.50;99.90;;;;;;5015617;28;20061;-78
2023/09/27 10:41:50;;;;;;;4.93;3.25;;;19.60;99.90;;;;;;5018448;28;20059;-78
2023/09/27 10:44:36;;;;;;;7.03;3.13;;;19.70;99.90;;;;;;5036237;28;20069;-79
2023/09/27 10:47:04;;;;;;;5.97;2.85;;;19.80;99.90;;;;;;5018327;28;20044;-73
2023/09/27 10:49:38;;;;;;;12.57;4.45;;;19.90;99.90;;;;;;5036143;28;20376;-74
2023/09/27 10:52:14;;;;;;;8.65;3.47;;;19.90;99.90;;;;;;5036095;28;20026;-74
2023/09/27 10:54:40;;;;;;;7.47;3.38;;;19.90;99.90;;;;;;5036028;28;20048;-74
2023/09/27 10:57:06;;;;;;;6.10;3.03;;;20.10;99.90;;;;;;5036151;28;20029;-72
2023/09/27 10:59:31;;;;;;;3.97;2.50;;;20.20;99.90;;;;;;5036373;28;20032;-71
2023/09/27 11:02:03;;;;;;;6.20;3.03;;;20.30;99.90;;;;;;5036167;28;20017;-72
2023/09/27 11:04:30;;;;;;;6.63;3.45;;;20.40;99.90;;;;;;5036238;28;20037;-72
2023/09/27 11:06:56;;;;;;;4.90;2.72;;;20.60;99.90;;;;;;5036058;28;20024;-72
2023/09/27 11:09:23;;;;;;;5.80;3.90;;;20.60;99.90;;;;;;5018058;28;20029;-74
2023/09/27 11:11:54;;;;;;;5.57;3.42;;;20.70;99.90;;;;;;5035808;28;20021;-75
2023/09/27 11:14:31;;;;;;;6.68;3.00;;;20.80;99.90;;;;;;5036065;28;20014;-74
2023/09/27 11:17:18;;;;;;;4.90;3.25;;;20.90;99.90;;;;;;5036249;28;20044;-74
2023/09/27 11:19:43;;;;;;;3.17;2.22;;;21.00;99.90;;;;;;5035439;28;20038;-74
2023/09/27 11:22:09;;;;;;;5.78;2.83;;;21.10;99.90;;;;;;5035631;28;20097;-70
2023/09/27 11:24:42;;;;;;;2.88;2.50;;;21.30;99.90;;;;;;5035595;28;20032;-70
2023/09/27 11:27:08;;;;;;;3.42;2.40;;;21.40;99.90;;;;;;5017639;28;20017;-78
2023/09/27 11:29:34;;;;;;;3.17;2.83;;;21.40;99.90;;;;;;5035600;28;20094;-71
2023/09/27 11:32:00;;;;;;;4.10;2.78;;;21.50;99.90;;;;;;5035234;28;20026;-70
2023/09/27 11:34:26;;;;;;;3.55;2.25;;;21.60;99.90;;;;;;5035355;28;20026;-73
2023/09/27 11:36:54;;;;;;;5.05;2.63;;;21.70;99.90;;;;;;5035357;28;20445;-73
2023/09/27 11:39:45;;;;;;;5.80;3.63;;;21.80;99.90;;;;;;5034079;28;20017;-72
2023/09/27 11:42:11;;;;;;;4.75;2.30;;;22.00;99.90;;;;;;5035146;28;20017;-71
2023/09/27 11:44:37;;;;;;;5.30;2.80;;;22.10;99.90;;;;;;5035393;28;20124;-71
2023/09/27 11:47:12;;;;;;;4.82;2.88;;;22.20;99.90;;;;;;5035206;28;20195;-74
2023/09/27 11:49:37;;;;;;;5.55;2.83;;;22.30;99.90;;;;;;5035127;28;20029;-72
2023/09/27 11:52:11;;;;;;;4.85;2.55;;;22.40;99.90;;;;;;5035027;28;20018;-73
2023/09/27 11:54:45;;;;;;;2.95;2.70;;;22.60;99.90;;;;;;5035330;28;20025;-71
2023/09/27 11:57:10;;;;;;;3.83;2.53;;;22.80;99.90;;;;;;5035084;28;20493;-72
2023/09/27 11:59:37;;;;;;;4.60;2.92;;;22.90;99.40;;;;;;5035048;28;20025;-72
2023/09/27 12:02:03;;;;;;;3.50;2.45;;;23.20;98.70;;;;;;5035169;28;20036;-72
2023/09/27 12:04:29;;;;;;;6.38;2.97;;;23.80;97.70;;;;;;5034830;28;20065;-71
2023/09/27 12:06:54;;;;;;;4.70;2.20;;;24.70;96.00;;;;;;5034759;28;20067;-72
2023/09/27 12:09:20;;;;;;;5.80;3.00;;;26.40;93.50;;;;;;5034739;28;20026;-71
2023/09/27 12:11:45;;;;;;;4.70;2.58;;;27.70;91.00;;;;;;5034751;28;20502;-72
2023/09/27 12:14:11;;;;;;;3.00;2.28;;;28.80;85.80;;;;;;5034674;28;20471;-76
2023/09/27 12:16:37;;;;;;;3.13;2.30;;;30.00;78.70;;;;;;5034673;28;20026;-75
2023/09/27 12:19:03;;;;;;;4.13;2.30;;;30.80;72.00;;;;;;5034713;28;20420;-72
2023/09/27 12:21:34;;;;;;;3.33;2.22;;;30.90;68.60;;;;;;5034629;28;20392;-72
2023/09/27 12:24:00;;;;;;;5.63;2.80;;;31.10;66.70;;;;;;5034433;28;20040;-72
2023/09/27 12:26:25;;;;;;;3.47;2.33;;;30.90;64.70;;;;;;5034443;28;20022;-74
2023/09/27 12:28:51;;;;;;;2.40;2.20;;;31.10;62.40;;;;;;5034509;28;20122;-74
2023/09/27 12:31:16;;;;;;;4.63;2.35;;;31.50;61.80;;;;;;5034438;28;20552;-72
2023/09/27 12:33:42;;;;;;;3.67;2.47;;;31.80;59.90;;;;;;5034287;28;20025;-73
2023/09/27 12:36:08;;;;;;;2.20;1.90;;;31.40;60.60;;;;;;5016792;28;20489;-73
2023/09/27 12:38:33;;;;;;;3.92;2.50;;;32.10;60.90;;;;;;5034265;28;20029;-69
2023/09/27 12:41:01;;;;;;;2.63;2.42;;;32.50;58.10;;;;;;5034000;28;20397;-70
2023/09/27 12:43:27;;;;;;;1.98;1.60;;;33.20;58.10;;;;;;5034034;28;20441;-72
2023/09/27 12:45:52;;;;;;;4.38;2.70;;;33.90;57.00;;;;;;5033979;28;20057;-70
2023/09/27 12:48:18;;;;;;;2.90;2.30;;;34.30;55.80;;;;;;5033854;28;20057;-70
2023/09/27 12:50:45;;;;;;;2.30;1.80;;;34.40;54.80;;;;;;5033493;28;20025;-69
2023/09/27 12:53:11;;;;;;;7.70;2.53;;;34.70;54.90;;;;;;5033865;28;20032;-70
2023/09/27 12:55:40;;;;;;;2.78;2.08;;;35.60;53.40;;;;;;5034127;28;20021;-71
2023/09/27 12:58:06;;;;;;;3.70;2.33;;;36.10;52.40;;;;;;5033805;28;20025;-71
2023/09/27 13:00:32;;;;;;;3.30;2.05;;;35.90;51.60;;;;;;5033825;28;20044;-71
2023/09/27 13:02:57;;;;;;;4.82;2.03;;;35.60;51.10;;;;;;5033607;28;20449;-72
2023/09/27 13:05:23;;;;;;;2.83;1.90;;;36.40;52.00;;;;;;5033623;28;20025;-72
2023/09/27 13:07:48;;;;;;;2.25;1.77;;;37.00;50.50;;;;;;5033614;28;20030;-71
2023/09/27 13:10:14;;;;;;;3.60;1.58;;;36.80;49.30;;;;;;5033670;28;20080;-72
2023/09/27 13:12:40;;;;;;;2.55;2.10;;;35.20;49.00;;;;;;5033490;28;20385;-71